Time;durP1;ratioP1;P1;durP2;ratioP2;P2;SDS_P1;SDS_P2;PMS_P1;PMS_P2;Temp;Humidity;BMP_temperature;BMP_pressure;BME280_temperature;BME280_humidity;BME280_pressure;Samples;Min_cycle;Max_cycle;Signal;HPM_P1;HPM_P2
2023/08/09 00:00:36;;;;;;;2.38;1.42;;;;;;;26.58;42.16;99491.38;5091475;28;20046;-72
2023/08/09 00:03:02;;;;;;;3.42;1.88;;;;;;;26.59;42.03;99503.75;5091832;28;20020;-72
2023/08/09 00:05:28;;;;;;;1.75;1.02;;;;;;;26.57;42.04;99495.84;5091984;28;20105;-72
2023/08/09 00:07:54;;;;;;;2.10;1.38;;;;;;;26.58;42.02;99491.38;5091836;28;20056;-73
2023/08/09 00:10:21;;;;;;;1.83;1.15;;;;;;;26.53;42.13;99492.59;5091749;28;20028;-72
2023/08/09 00:12:47;;;;;;;2.38;1.33;;;;;;;26.54;42.17;99486.25;5091712;28;20029;-72
2023/08/09 00:15:12;;;;;;;2.05;1.27;;;;;;;26.52;42.17;99490.91;5091528;28;20396;-72
2023/08/09 00:17:38;;;;;;;2.35;1.40;;;;;;;26.52;42.15;99487.38;5091625;28;20024;-71
2023/08/09 00:20:08;;;;;;;1.98;1.23;;;;;;;26.53;42.48;99489.06;5091830;28;20110;-72
2023/08/09 00:22:33;;;;;;;1.90;1.08;;;;;;;26.51;42.20;99486.53;5091881;28;20040;-72
2023/08/09 00:24:59;;;;;;;2.58;1.38;;;;;;;26.52;42.16;99493.56;5091674;28;20016;-71
2023/08/09 00:27:24;;;;;;;2.10;1.48;;;;;;;26.50;42.24;99495.53;5091535;28;20020;-71
2023/08/09 00:29:50;;;;;;;2.40;1.42;;;;;;;26.49;42.30;99498.34;5091088;28;20124;-71
2023/08/09 00:32:15;;;;;;;2.53;1.42;;;;;;;26.49;42.56;99501.84;5091431;28;20074;-72
2023/08/09 00:34:41;;;;;;;2.35;1.27;;;;;;;26.48;42.43;99502.84;5091644;28;20023;-71
2023/08/09 00:37:06;;;;;;;2.42;1.25;;;;;;;26.48;42.35;99497.47;5091400;28;20440;-72
2023/08/09 00:39:32;;;;;;;2.28;1.40;;;;;;;26.47;42.65;99498.47;5091501;28;20105;-71
2023/08/09 00:41:57;;;;;;;2.55;1.48;;;;;;;26.45;42.75;99487.06;5094814;28;20027;-72
2023/08/09 00:44:22;;;;;;;2.60;1.30;;;;;;;26.46;42.65;99491.41;5094768;28;20435;-71
2023/08/09 00:46:49;;;;;;;2.25;1.27;;;;;;;26.45;42.66;99504.91;5095061;28;20031;-71
2023/08/09 00:49:16;;;;;;;1.80;1.10;;;;;;;26.44;42.63;99497.88;5093593;28;20089;-72
2023/08/09 00:51:41;;;;;;;2.08;1.38;;;;;;;26.42;42.72;99497.16;5093592;28;20396;-71
2023/08/09 00:54:07;;;;;;;2.03;1.30;;;;;;;26.41;42.55;99507.00;5094857;28;20035;-72
2023/08/09 00:56:32;;;;;;;2.33;1.20;;;;;;;26.40;42.81;99505.31;5095016;28;20028;-72
2023/08/09 00:58:57;;;;;;;2.45;1.40;;;;;;;26.39;42.82;99507.13;5094656;28;20035;-71
2023/08/09 01:01:23;;;;;;;2.05;1.20;;;;;;;26.39;42.67;99503.63;5094775;28;20048;-72
2023/08/09 01:03:49;;;;;;;2.50;1.40;;;;;;;26.38;42.49;99501.91;5094744;28;20479;-71
2023/08/09 01:06:29;;;;;;;2.60;1.40;;;;;;;26.38;42.67;99507.25;5094777;28;20035;-71
2023/08/09 01:09:13;;;;;;;2.08;1.20;;;;;;;26.35;42.81;99502.16;5094711;28;20408;-72
2023/08/09 01:11:44;;;;;;;1.70;1.20;;;;;;;26.33;42.48;99504.13;5094383;28;20112;-70
2023/08/09 01:14:11;;;;;;;2.65;1.65;;;;;;;26.32;42.51;99505.94;5094322;28;20027;-72
2023/08/09 01:16:37;;;;;;;2.10;1.30;;;;;;;26.31;42.65;99501.59;5094664;28;20032;-72
2023/08/09 01:19:11;;;;;;;1.67;1.00;;;;;;;26.31;42.61;99495.38;5094328;28;20388;-71
2023/08/09 01:21:38;;;;;;;2.30;1.25;;;;;;;26.30;42.70;99504.38;5094339;28;20507;-71
2023/08/09 01:24:06;;;;;;;1.83;1.23;;;;;;;26.30;42.98;99493.69;5094181;28;20024;-71
2023/08/09 01:26:31;;;;;;;2.20;1.20;;;;;;;26.29;42.93;99502.69;5093995;28;20024;-71
2023/08/09 01:28:57;;;;;;;2.00;1.05;;;;;;;26.27;42.76;99498.31;5094027;28;20024;-71
2023/08/09 01:31:22;;;;;;;2.35;1.30;;;;;;;26.27;42.94;99494.78;5092929;28;20024;-71
2023/08/09 01:33:48;;;;;;;1.83;1.20;;;;;;;26.26;43.01;99499.25;5094161;28;20016;-72
2023/08/09 01:36:23;;;;;;;2.00;0.98;;;;;;;26.26;42.74;99503.78;5093939;28;20024;-72
2023/08/09 01:39:00;;;;;;;2.65;1.35;;;;;;;26.25;43.11;99500.25;5094127;28;20016;-71
2023/08/09 01:41:27;;;;;;;2.35;1.30;;;;;;;26.24;43.06;99503.91;5093812;28;20027;-71
2023/08/09 01:43:54;;;;;;;2.10;1.30;;;;;;;26.23;42.87;99499.53;5093910;28;20504;-72
2023/08/09 01:46:20;;;;;;;2.33;1.30;;;;;;;26.23;43.20;99494.19;5093850;28;20020;-70
2023/08/09 01:48:46;;;;;;;1.92;1.10;;;;;;;26.21;42.97;99493.44;5093871;28;20495;-71
2023/08/09 01:51:11;;;;;;;2.03;1.25;;;;;;;26.22;42.89;99481.75;5093718;28;20075;-71
2023/08/09 01:53:37;;;;;;;2.05;1.20;;;;;;;26.21;43.08;99485.41;5093099;28;20492;-71
2023/08/09 01:56:03;;;;;;;2.25;1.27;;;;;;;26.20;42.91;99491.72;5093491;28;20024;-72
2023/08/09 01:58:28;;;;;;;1.95;1.17;;;;;;;26.21;42.83;99492.59;5093732;28;20042;-71
2023/08/09 02:00:53;;;;;;;2.10;1.20;;;;;;;26.21;42.70;99485.41;5093530;28;20127;-71
2023/08/09 02:03:19;;;;;;;2.42;1.40;;;;;;;26.21;42.79;99490.78;5093602;28;20028;-71
2023/08/09 02:05:44;;;;;;;2.75;1.13;;;;;;;26.21;42.45;99489.91;5093608;28;20073;-72
2023/08/09 02:08:10;;;;;;;2.30;1.52;;;;;;;26.19;42.45;99487.34;5093484;28;20440;-71
2023/08/09 02:10:35;;;;;;;2.20;1.25;;;;;;;26.21;42.40;99485.41;5093323;28;20031;-71
2023/08/09 02:13:01;;;;;;;1.60;1.08;;;;;;;26.21;42.38;99489.91;5093442;28;20474;-71
2023/08/09 02:15:26;;;;;;;2.47;1.50;;;;;;;26.20;42.84;99489.03;5093343;28;20047;-71
2023/08/09 02:17:52;;;;;;;2.40;1.35;;;;;;;26.20;42.87;99494.41;5093473;28;20028;-72
2023/08/09 02:20:19;;;;;;;2.40;1.30;;;;;;;26.20;42.72;99490.88;5093098;28;20039;-72
2023/08/09 02:22:45;;;;;;;2.70;1.50;;;;;;;26.19;42.95;99481.19;5093232;28;20158;-71
2023/08/09 02:25:10;;;;;;;2.30;1.30;;;;;;;26.18;42.63;99490.16;5092783;28;20106;-71
2023/08/09 02:27:36;;;;;;;2.90;1.60;;;;;;;26.17;42.46;99489.31;5093162;28;20035;-72
2023/08/09 02:30:03;;;;;;;2.45;1.20;;;;;;;26.17;42.52;99483.97;5092988;28;20024;-72
2023/08/09 02:32:32;;;;;;;3.03;1.52;;;;;;;26.16;42.67;99487.63;5092981;28;20102;-72
2023/08/09 02:34:58;;;;;;;2.15;1.17;;;;;;;26.13;42.38;99488.72;5093256;28;20046;-70
2023/08/09 02:37:24;;;;;;;2.88;1.70;;;;;;;26.13;42.38;99494.06;5093118;28;20020;-71
2023/08/09 02:39:50;;;;;;;2.58;1.42;;;;;;;26.13;42.50;99495.88;5092764;28;20031;-71
2023/08/09 02:42:16;;;;;;;2.53;1.50;;;;;;;26.12;42.43;99486.16;5092891;28;20476;-72
2023/08/09 02:44:42;;;;;;;2.40;1.52;;;;;;;26.12;42.64;99486.16;5092802;28;20047;-72
2023/08/09 02:47:08;;;;;;;2.75;1.40;;;;;;;26.12;42.38;99483.50;5092882;28;20443;-72
2023/08/09 02:49:34;;;;;;;2.38;1.30;;;;;;;26.11;42.64;99484.47;5092805;28;20047;-71
2023/08/09 02:51:59;;;;;;;2.28;1.23;;;;;;;26.09;42.56;99483.75;5092699;28;20063;-71
2023/08/09 02:54:25;;;;;;;1.75;1.17;;;;;;;26.09;42.49;99491.75;5092335;28;20417;-72
2023/08/09 02:56:50;;;;;;;2.10;1.13;;;;;;;26.08;42.79;99487.38;5092602;28;20430;-71
2023/08/09 02:59:15;;;;;;;2.53;1.30;;;;;;;26.08;42.67;99487.38;5092905;28;20028;-73
2023/08/09 03:01:44;;;;;;;2.60;1.30;;;;;;;26.08;42.38;99490.06;5092377;28;20039;-72
2023/08/09 03:04:10;;;;;;;2.25;1.33;;;;;;;26.04;42.72;99483.28;5092329;28;20024;-71
2023/08/09 03:06:35;;;;;;;2.38;1.15;;;;;;;26.04;42.49;99483.28;5092524;28;20035;-71
2023/08/09 03:09:02;;;;;;;1.88;1.17;;;;;;;26.03;42.69;99486.91;5092062;28;20388;-72
2023/08/09 03:11:27;;;;;;;2.20;1.35;;;;;;;26.03;42.51;99486.91;5092524;28;20122;-71
2023/08/09 03:13:53;;;;;;;2.75;1.20;;;;;;;26.00;42.71;99488.03;5092414;28;20428;-71
2023/08/09 03:16:20;;;;;;;1.67;1.20;;;;;;;25.98;42.76;99485.50;5092324;28;20024;-71
2023/08/09 03:18:45;;;;;;;1.80;1.10;;;;;;;25.98;42.57;99489.97;5092150;28;20028;-71
2023/08/09 03:21:12;;;;;;;1.73;0.90;;;;;;;25.97;42.74;99483.81;5092346;28;20027;-71
2023/08/09 03:23:37;;;;;;;1.83;1.02;;;;;;;25.96;42.75;99487.41;5091896;28;20104;-71
2023/08/09 03:26:03;;;;;;;1.63;1.08;;;;;;;25.95;42.90;99485.72;5092053;28;20054;-71
2023/08/09 03:28:29;;;;;;;1.42;1.10;;;;;;;25.93;42.68;99482.34;5092221;28;20024;-71
2023/08/09 03:30:54;;;;;;;2.58;1.23;;;;;;;25.92;42.85;99482.47;5092392;28;20035;-72
2023/08/09 03:33:20;;;;;;;2.17;1.20;;;;;;;25.93;42.86;99489.50;5092538;28;20521;-72
2023/08/09 03:35:45;;;;;;;2.17;1.10;;;;;;;25.91;42.69;99486.13;5092126;28;20512;-71
2023/08/09 03:38:11;;;;;;;2.70;1.48;;;;;;;25.90;42.83;99487.94;5091727;28;20024;-72
2023/08/09 03:40:36;;;;;;;2.33;1.20;;;;;;;25.89;42.60;99488.91;5092145;28;20020;-70
2023/08/09 03:43:02;;;;;;;2.58;1.23;;;;;;;25.88;42.49;99487.22;5091934;28;20058;-72
2023/08/09 03:45:28;;;;;;;1.98;1.25;;;;;;;25.87;42.75;99494.38;5091857;28;20023;-71
2023/08/09 03:47:54;;;;;;;1.95;1.30;;;;;;;25.85;42.77;99501.69;5092151;28;20027;-72
2023/08/09 03:50:20;;;;;;;1.63;0.93;;;;;;;25.84;42.54;99497.31;5091962;28;20435;-71
2023/08/09 03:52:45;;;;;;;1.10;0.80;;;;;;;25.84;42.58;99493.78;5091632;28;20050;-71
2023/08/09 03:55:11;;;;;;;2.35;1.27;;;;;;;25.84;42.50;99491.09;5092050;28;20059;-71
2023/08/09 03:57:36;;;;;;;2.08;1.20;;;;;;;25.84;42.66;99499.13;5091828;28;20020;-71
2023/08/09 04:00:02;;;;;;;1.90;1.10;;;;;;;25.83;42.79;99497.44;5090329;28;20030;-71
2023/08/09 04:02:28;;;;;;;2.05;1.20;;;;;;;25.81;42.53;99508.25;5091890;28;20027;-71
2023/08/09 04:04:54;;;;;;;1.70;1.10;;;;;;;25.83;42.66;99502.78;5091745;28;20111;-72
2023/08/09 04:07:19;;;;;;;1.88;1.20;;;;;;;25.82;43.09;99514.44;5090051;28;20085;-71
2023/08/09 04:09:45;;;;;;;2.10;1.02;;;;;;;25.80;42.84;99514.56;5091636;28;20479;-71
2023/08/09 04:12:10;;;;;;;2.53;1.40;;;;;;;25.79;42.93;99522.69;5091739;28;20024;-71
2023/08/09 04:14:36;;;;;;;2.00;1.13;;;;;;;25.80;42.78;99513.72;5091683;28;20372;-72
2023/08/09 04:17:01;;;;;;;2.65;1.40;;;;;;;25.78;42.68;99516.53;5095236;28;20044;-71
2023/08/09 04:19:26;;;;;;;2.35;1.10;;;;;;;25.76;43.12;99517.63;5095628;28;20047;-71
2023/08/09 04:21:53;;;;;;;1.85;1.15;;;;;;;25.74;42.68;99510.56;5095297;28;20437;-71
2023/08/09 04:24:19;;;;;;;1.95;1.10;;;;;;;25.76;42.81;99517.63;5095368;28;20545;-72
2023/08/09 04:26:44;;;;;;;2.10;1.25;;;;;;;25.74;43.01;99515.06;5095593;28;20020;-72
2023/08/09 04:29:10;;;;;;;1.60;0.90;;;;;;;25.73;43.11;99514.19;5095382;28;20039;-71
2023/08/09 04:31:36;;;;;;;2.22;1.20;;;;;;;25.72;43.06;99515.16;5095512;28;20104;-71
2023/08/09 04:34:02;;;;;;;2.38;1.23;;;;;;;25.73;42.80;99518.72;5095362;28;20055;-71
2023/08/09 04:36:28;;;;;;;2.78;1.40;;;;;;;25.72;42.84;99520.53;5094962;28;20107;-71
2023/08/09 04:38:54;;;;;;;1.63;1.08;;;;;;;25.71;43.06;99526.84;5095395;28;20028;-71
2023/08/09 04:41:19;;;;;;;2.28;1.20;;;;;;;25.70;42.91;99524.28;5095379;28;20028;-72
2023/08/09 04:43:46;;;;;;;2.22;1.23;;;;;;;25.68;42.94;99532.44;5093953;28;20084;-72
2023/08/09 04:46:12;;;;;;;3.15;1.40;;;;;;;25.68;42.67;99537.78;5095147;28;20380;-71
2023/08/09 04:48:41;;;;;;;1.92;1.10;;;;;;;25.66;42.71;99545.06;5093851;28;20028;-70
2023/08/09 04:51:08;;;;;;;2.38;1.23;;;;;;;25.66;42.66;99544.22;5094890;28;20059;-72
2023/08/09 04:53:34;;;;;;;1.80;1.10;;;;;;;25.66;42.59;99545.06;5094949;28;20059;-72
2023/08/09 04:55:59;;;;;;;2.05;1.30;;;;;;;25.64;42.82;99547.00;5093730;28;20062;-71
2023/08/09 04:58:25;;;;;;;2.15;1.23;;;;;;;25.65;42.90;99542.53;5094924;28;20058;-72
2023/08/09 05:00:50;;;;;;;2.08;1.20;;;;;;;25.64;42.79;99541.69;5094751;28;20071;-72
2023/08/09 05:03:16;;;;;;;3.17;1.30;;;;;;;25.64;42.53;99547.00;5094914;28;20036;-71
2023/08/09 05:05:41;;;;;;;2.13;1.23;;;;;;;25.62;42.64;99543.63;5094186;28;20028;-71
2023/08/09 05:08:07;;;;;;;3.20;1.40;;;;;;;25.61;42.68;99541.91;5094648;28;20031;-70
2023/08/09 05:10:34;;;;;;;1.92;1.00;;;;;;;25.61;42.89;99547.25;5094562;28;20063;-71
2023/08/09 05:12:59;;;;;;;2.70;1.40;;;;;;;25.62;42.87;99553.44;5094644;28;20333;-72
2023/08/09 05:15:25;;;;;;;1.70;1.08;;;;;;;25.60;42.86;99556.25;5094572;28;20099;-72
2023/08/09 05:17:50;;;;;;;1.85;1.10;;;;;;;25.59;42.63;99559.88;5094154;28;20438;-71
2023/08/09 05:20:16;;;;;;;2.05;1.02;;;;;;;25.58;42.87;99553.69;5094437;28;20059;-72
2023/08/09 05:22:41;;;;;;;2.13;1.10;;;;;;;25.57;42.53;99556.50;5094579;28;20035;-72
2023/08/09 05:25:07;;;;;;;2.03;1.00;;;;;;;25.59;42.62;99562.56;5094164;28;20106;-71
2023/08/09 05:27:33;;;;;;;3.13;1.67;;;;;;;25.56;42.65;99560.16;5093173;28;20112;-72
2023/08/09 05:29:58;;;;;;;2.05;1.10;;;;;;;25.57;42.80;99567.19;5094303;28;20036;-71
2023/08/09 05:32:23;;;;;;;3.03;1.20;;;;;;;25.56;42.78;99560.16;5092506;28;20403;-70
2023/08/09 05:34:49;;;;;;;2.08;1.17;;;;;;;25.55;42.52;99561.09;5094192;28;20024;-70
2023/08/09 05:37:15;;;;;;;2.20;1.15;;;;;;;25.55;42.60;99563.75;5094201;28;20139;-72
2023/08/09 05:39:40;;;;;;;2.55;1.40;;;;;;;25.53;42.50;99560.34;5094261;28;20028;-71
2023/08/09 05:42:06;;;;;;;1.50;1.00;;;;;;;25.51;42.45;99567.63;5094059;28;20056;-70
2023/08/09 05:44:31;;;;;;;2.05;1.10;;;;;;;25.50;42.62;99561.44;5094210;28;20032;-71
2023/08/09 05:46:57;;;;;;;2.15;1.20;;;;;;;25.48;42.64;99572.22;5093787;28;20437;-70
2023/08/09 05:49:22;;;;;;;2.40;1.25;;;;;;;25.49;42.82;99578.44;5092678;28;20115;-71
2023/08/09 05:51:48;;;;;;;2.55;1.33;;;;;;;25.46;42.83;99576.00;5093985;28;20107;-70
2023/08/09 05:54:13;;;;;;;1.98;1.17;;;;;;;25.46;42.74;99571.50;5093704;28;20394;-71
2023/08/09 05:56:41;;;;;;;2.33;1.42;;;;;;;25.45;42.57;99580.50;5093773;28;20024;-71
2023/08/09 05:59:07;;;;;;;2.50;1.38;;;;;;;25.45;42.60;99572.50;5093786;28;20020;-70
2023/08/09 06:01:32;;;;;;;2.33;1.05;;;;;;;25.43;42.52;99579.75;5093154;28;20404;-72
2023/08/09 06:03:58;;;;;;;2.10;1.13;;;;;;;25.42;42.68;99580.72;5093777;28;20487;-71
2023/08/09 06:06:23;;;;;;;2.22;1.15;;;;;;;25.43;42.77;99582.44;5093693;28;20027;-71
2023/08/09 06:08:52;;;;;;;2.13;1.30;;;;;;;25.42;42.85;99578.06;5093520;28;20043;-71
2023/08/09 06:11:19;;;;;;;2.00;1.10;;;;;;;25.42;42.59;99587.91;5093633;28;20060;-72
2023/08/09 06:13:45;;;;;;;2.92;1.40;;;;;;;25.42;42.40;99585.25;5093375;28;20532;-70
2023/08/09 06:16:10;;;;;;;2.85;1.40;;;;;;;25.41;42.30;99595.06;5092996;28;20032;-72
2023/08/09 06:18:36;;;;;;;1.92;1.10;;;;;;;25.42;42.72;99596.75;5093648;28;20158;-71
2023/08/09 06:21:01;;;;;;;1.77;1.10;;;;;;;25.42;42.45;99594.09;5093430;28;20031;-72
2023/08/09 06:23:27;;;;;;;2.50;1.30;;;;;;;25.42;42.65;99596.75;5093359;28;20036;-71
2023/08/09 06:25:53;;;;;;;3.15;1.50;;;;;;;25.42;42.60;99596.75;5093568;28;20032;-72
2023/08/09 06:28:19;;;;;;;3.05;1.48;;;;;;;25.43;42.42;99593.09;5093223;28;20430;-70
2023/08/09 06:30:45;;;;;;;2.85;1.40;;;;;;;25.46;42.54;99598.22;5092983;28;20027;-71
2023/08/09 06:33:11;;;;;;;2.53;1.30;;;;;;;25.46;42.57;99594.69;5093252;28;20031;-71
2023/08/09 06:35:37;;;;;;;3.30;1.58;;;;;;;25.45;42.53;99591.19;5093136;28;20031;-72
2023/08/09 06:38:02;;;;;;;2.85;1.35;;;;;;;25.47;42.53;99583.91;5092717;28;20095;-72
2023/08/09 06:40:28;;;;;;;2.60;1.40;;;;;;;25.46;42.56;99598.22;5092934;28;20481;-71
2023/08/09 06:42:53;;;;;;;3.00;1.40;;;;;;;25.47;42.32;99599.91;5092953;28;20108;-70
2023/08/09 06:45:19;;;;;;;3.22;1.73;;;;;;;25.46;42.45;99603.56;5092479;28;20027;-71
2023/08/09 06:47:44;;;;;;;3.10;1.42;;;;;;;25.44;42.34;99602.00;5092825;28;20039;-72
2023/08/09 06:50:10;;;;;;;2.47;1.33;;;;;;;25.42;42.48;99604.78;5092869;28;20537;-72
2023/08/09 06:52:36;;;;;;;2.63;1.50;;;;;;;25.43;42.61;99614.47;5092782;28;20084;-72
2023/08/09 06:55:03;;;;;;;2.45;1.60;;;;;;;25.44;42.42;99610.88;5092621;28;20487;-72
2023/08/09 06:57:28;;;;;;;2.63;1.60;;;;;;;25.42;42.49;99611.94;5091218;28;20020;-71
2023/08/09 06:59:54;;;;;;;2.97;1.63;;;;;;;25.42;42.23;99618.13;5092321;28;20016;-70
2023/08/09 07:02:20;;;;;;;3.03;1.65;;;;;;;25.44;42.51;99612.66;5092675;28;20376;-72
2023/08/09 07:04:46;;;;;;;4.18;1.70;;;;;;;25.45;42.41;99609.88;5092339;28;20028;-71
2023/08/09 07:07:11;;;;;;;2.92;1.60;;;;;;;25.47;42.51;99610.59;5092722;28;20071;-71
2023/08/09 07:09:37;;;;;;;2.92;1.52;;;;;;;25.48;42.32;99606.97;5092351;28;20131;-71
2023/08/09 07:12:02;;;;;;;3.00;1.80;;;;;;;25.48;42.39;99612.31;5092342;28;20489;-71
2023/08/09 07:14:28;;;;;;;2.63;1.52;;;;;;;25.47;42.37;99609.78;5091942;28;20102;-72
2023/08/09 07:16:53;;;;;;;3.47;1.70;;;;;;;25.48;42.44;99611.47;5091008;28;20408;-72
2023/08/09 07:19:19;;;;;;;2.95;1.52;;;;;;;25.49;42.44;99621.19;5092266;28;20031;-71
2023/08/09 07:21:45;;;;;;;3.03;1.50;;;;;;;25.52;42.18;99617.44;5090877;28;20036;-72
2023/08/09 07:24:10;;;;;;;3.13;1.40;;;;;;;25.53;42.40;99616.44;5092063;28;20027;-72
2023/08/09 07:26:43;;;;;;;2.80;1.50;;;;;;;25.52;42.24;99622.75;5092282;28;20027;-72
2023/08/09 07:29:08;;;;;;;3.10;1.52;;;;;;;25.55;42.40;99627.88;5091854;28;20050;-72
2023/08/09 07:31:34;;;;;;;2.45;1.52;;;;;;;25.58;42.42;99622.31;5092030;28;20062;-72
2023/08/09 07:34:00;;;;;;;2.58;1.38;;;;;;;25.58;42.32;99622.31;5092224;28;20031;-71
2023/08/09 07:36:25;;;;;;;2.63;1.52;;;;;;;25.58;42.03;99619.66;5092186;28;20524;-71
2023/08/09 07:38:51;;;;;;;3.40;1.98;;;;;;;25.58;42.38;99617.81;5091961;28;20357;-71
2023/08/09 07:41:16;;;;;;;3.17;1.77;;;;;;;25.60;42.51;99615.88;5092199;28;20020;-71
2023/08/09 07:43:42;;;;;;;3.15;1.70;;;;;;;25.61;42.26;99616.72;5091525;28;20020;-72
2023/08/09 07:46:07;;;;;;;3.22;1.85;;;;;;;25.64;42.20;99620.97;5091935;28;20048;-73
2023/08/09 07:48:33;;;;;;;3.05;1.40;;;;;;;25.66;42.25;99625.22;5092062;28;20468;-71
2023/08/09 07:50:59;;;;;;;2.83;1.67;;;;;;;25.69;42.25;99625.00;5093927;28;20020;-71
2023/08/09 07:53:25;;;;;;;3.05;1.60;;;;;;;25.70;42.13;99626.69;5096206;28;20024;-72
2023/08/09 07:55:50;;;;;;;3.17;1.70;;;;;;;25.71;42.27;99623.03;5096196;28;20026;-72
2023/08/09 07:58:16;;;;;;;2.45;1.40;;;;;;;25.72;42.45;99619.41;5095736;28;20111;-72
2023/08/09 08:00:41;;;;;;;2.72;1.70;;;;;;;25.73;42.12;99614.91;5094548;28;20135;-72
2023/08/09 08:03:07;;;;;;;2.80;1.48;;;;;;;25.74;42.21;99625.50;5095901;28;20031;-71
2023/08/09 08:05:32;;;;;;;3.50;1.85;;;;;;;25.76;42.37;99617.31;5095778;28;20028;-70
2023/08/09 08:07:58;;;;;;;3.42;1.70;;;;;;;25.76;42.39;99620.00;5095895;28;20520;-71
2023/08/09 08:10:23;;;;;;;2.85;1.48;;;;;;;25.78;42.11;99627.91;5095736;28;20109;-70
2023/08/09 08:12:49;;;;;;;3.63;1.90;;;;;;;25.79;42.11;99619.78;5095349;28;20095;-71
2023/08/09 08:15:16;;;;;;;2.78;1.60;;;;;;;25.80;42.00;99615.28;5095761;28;20020;-72
2023/08/09 08:17:42;;;;;;;2.53;1.60;;;;;;;25.80;42.17;99621.47;5095595;28;20032;-72
2023/08/09 08:20:15;;;;;;;3.80;1.83;;;;;;;25.81;42.18;99619.66;5095732;28;20197;-71
2023/08/09 08:22:44;;;;;;;2.67;1.75;;;;;;;25.82;42.33;99621.34;5095460;28;20115;-72
2023/08/09 08:25:11;;;;;;;3.58;1.80;;;;;;;25.82;42.10;99627.53;5095758;28;20020;-72
2023/08/09 08:27:37;;;;;;;3.33;1.80;;;;;;;25.83;42.39;99615.91;5095309;28;20055;-72
2023/08/09 08:30:04;;;;;;;2.63;1.40;;;;;;;25.84;42.20;99619.41;5095477;28;20050;-71
2023/08/09 08:32:32;;;;;;;3.47;1.63;;;;;;;25.84;42.20;99614.06;5095572;28;20024;-72
2023/08/09 08:35:01;;;;;;;2.67;1.35;;;;;;;25.84;42.01;99616.72;5095241;28;20107;-71
2023/08/09 08:37:27;;;;;;;2.78;1.40;;;;;;;25.85;42.07;99618.41;5095388;28;20020;-71
2023/08/09 08:39:52;;;;;;;3.00;1.65;;;;;;;25.85;42.19;99624.63;5095322;28;20024;-72
2023/08/09 08:42:18;;;;;;;3.42;1.50;;;;;;;25.86;42.25;99617.47;5094878;28;20032;-71
2023/08/09 08:44:44;;;;;;;2.75;1.60;;;;;;;25.86;42.08;99609.47;5095072;28;20032;-71
2023/08/09 08:47:10;;;;;;;3.10;1.60;;;;;;;25.86;42.03;99609.47;5095258;28;20058;-72
2023/08/09 08:49:40;;;;;;;2.45;1.40;;;;;;;25.87;42.38;99611.16;5094926;28;20507;-72
2023/08/09 08:52:07;;;;;;;2.45;1.40;;;;;;;25.89;42.32;99603.84;5094013;28;20063;-72
2023/08/09 08:54:33;;;;;;;2.97;1.60;;;;;;;25.91;42.17;99604.56;5095113;28;20112;-72
2023/08/09 08:56:59;;;;;;;2.72;1.55;;;;;;;25.90;42.38;99600.19;5094677;28;20480;-71
2023/08/09 08:59:25;;;;;;;2.53;1.58;;;;;;;25.90;42.28;99597.53;5094876;28;20044;-72
2023/08/09 09:01:51;;;;;;;2.63;1.42;;;;;;;25.91;42.31;99596.53;5094589;28;20507;-72
2023/08/09 09:04:17;;;;;;;3.33;1.63;;;;;;;25.93;42.52;99588.41;5094697;28;20027;-72
2023/08/09 09:06:42;;;;;;;3.45;1.38;;;;;;;25.93;42.28;99589.28;5094877;28;20017;-72
2023/08/09 09:09:15;;;;;;;3.10;1.60;;;;;;;25.95;42.16;99591.84;5094537;28;20529;-72
2023/08/09 09:11:42;;;;;;;3.13;1.70;;;;;;;25.97;42.32;99592.56;5094119;28;20039;-71
2023/08/09 09:14:13;;;;;;;2.67;1.50;;;;;;;25.98;42.27;99594.25;5094379;28;20036;-72
2023/08/09 09:16:39;;;;;;;2.58;1.42;;;;;;;25.98;42.07;99586.22;5094804;28;20373;-72
2023/08/09 09:19:05;;;;;;;3.55;1.55;;;;;;;25.99;42.24;99588.78;5110426;28;20600;-72
2023/08/09 09:21:32;;;;;;;3.50;1.50;;;;;;;25.99;42.30;99575.41;5094652;28;20438;-71
2023/08/09 09:24:05;;;;;;;2.47;1.67;;;;;;;26.01;42.24;99586.81;5094463;28;20400;-71
2023/08/09 09:26:31;;;;;;;3.63;1.83;;;;;;;26.04;42.22;99587.56;5093998;28;20016;-72
2023/08/09 09:28:57;;;;;;;2.85;1.70;;;;;;;26.06;42.12;99588.28;5093088;28;20027;-71
2023/08/09 09:31:34;;;;;;;2.55;1.55;;;;;;;26.06;41.95;99583.78;5094448;28;20099;-72
2023/08/09 09:34:00;;;;;;;2.58;1.52;;;;;;;26.11;41.95;99591.44;5094114;28;20020;-72
2023/08/09 09:36:25;;;;;;;3.17;1.50;;;;;;;26.10;42.38;99589.75;5094293;28;20026;-71
2023/08/09 09:38:56;;;;;;;2.60;1.38;;;;;;;26.12;42.18;99587.78;5093951;28;20468;-71
2023/08/09 09:41:21;;;;;;;2.70;1.70;;;;;;;26.11;42.18;99580.75;5094123;28;20024;-72
2023/08/09 09:43:50;;;;;;;2.85;1.33;;;;;;;26.13;42.18;99587.66;5094038;28;20070;-71
2023/08/09 09:46:20;;;;;;;2.65;1.55;;;;;;;26.14;41.99;99586.69;5094058;28;20434;-72
2023/08/09 09:48:50;;;;;;;3.00;1.60;;;;;;;26.16;42.24;99583.91;5092755;28;20222;-72
2023/08/09 09:51:17;;;;;;;3.22;1.70;;;;;;;26.18;42.23;99586.41;5094008;28;20028;-71
2023/08/09 09:53:44;;;;;;;2.83;1.48;;;;;;;26.18;41.90;99581.94;5093484;28;20052;-72
2023/08/09 09:56:09;;;;;;;2.70;1.38;;;;;;;26.19;41.95;99583.63;5093860;28;20044;-72
2023/08/09 09:58:35;;;;;;;2.60;1.40;;;;;;;26.21;42.34;99571.00;5093943;28;20070;-72
2023/08/09 10:01:02;;;;;;;3.20;1.73;;;;;;;26.24;42.16;99585.97;5093612;28;20389;-72
2023/08/09 10:03:31;;;;;;;3.53;1.55;;;;;;;26.24;42.21;99581.47;5093767;28;20028;-71
2023/08/09 10:05:59;;;;;;;3.42;1.80;;;;;;;26.26;41.86;99579.50;5093696;28;20039;-72
2023/08/09 10:08:27;;;;;;;2.70;1.40;;;;;;;26.27;41.81;99575.88;5093385;28;20032;-72
2023/08/09 10:10:54;;;;;;;2.53;1.33;;;;;;;26.28;42.19;99584.75;5093324;28;20031;-72
2023/08/09 10:13:23;;;;;;;4.50;1.60;;;;;;;26.29;42.09;99581.09;5092727;28;20496;-72
2023/08/09 10:15:54;;;;;;;2.20;1.35;;;;;;;26.31;42.05;99580.97;5093359;28;20417;-72
2023/08/09 10:18:23;;;;;;;3.08;1.50;;;;;;;26.33;41.67;99579.03;5093765;28;20039;-72
2023/08/09 10:20:52;;;;;;;3.08;1.60;;;;;;;26.34;41.94;99570.03;5093550;28;20027;-71
2023/08/09 10:23:24;;;;;;;3.03;1.60;;;;;;;26.36;41.82;99562.72;5092920;28;20020;-71
2023/08/09 10:25:51;;;;;;;2.45;1.50;;;;;;;26.37;42.13;99569.75;5093400;28;20081;-71
2023/08/09 10:28:18;;;;;;;3.25;1.67;;;;;;;26.37;42.09;99567.94;5093158;28;20020;-72
2023/08/09 10:30:49;;;;;;;3.45;1.67;;;;;;;26.39;41.67;99563.31;5093233;28;20034;-72
2023/08/09 10:33:19;;;;;;;2.33;1.33;;;;;;;26.39;42.05;99559.78;5092974;28;20122;-72
2023/08/09 10:35:54;;;;;;;2.33;1.42;;;;;;;26.40;41.64;99554.28;5092889;28;20493;-72
2023/08/09 10:38:32;;;;;;;2.53;1.50;;;;;;;26.42;41.78;99556.84;5092608;28;20051;-71
2023/08/09 10:40:59;;;;;;;3.28;1.70;;;;;;;26.44;41.63;99559.41;5093005;28;20024;-72
2023/08/09 10:43:30;;;;;;;3.55;1.80;;;;;;;26.45;41.77;99561.09;5093029;28;20028;-72
2023/08/09 10:45:56;;;;;;;2.70;1.60;;;;;;;26.46;41.78;99560.97;5093142;28;20032;-71
2023/08/09 10:48:25;;;;;;;3.42;2.08;;;;;;;26.48;41.90;99560.88;5092779;28;20031;-72
2023/08/09 10:51:13;;;;;;;2.38;1.33;;;;;;;26.50;41.69;99551.72;5091533;28;20032;-71
2023/08/09 10:53:57;;;;;;;2.50;1.40;;;;;;;26.50;41.66;99551.72;5092297;28;20115;-72
2023/08/09 10:56:31;;;;;;;2.95;1.60;;;;;;;26.51;41.61;99545.41;5092835;28;20463;-72
2023/08/09 10:59:24;;;;;;;3.08;1.55;;;;;;;26.52;41.92;99540.88;5092774;28;20024;-72
2023/08/09 11:01:51;;;;;;;4.00;1.67;;;;;;;26.53;42.03;99548.78;5091114;28;20130;-72
2023/08/09 11:04:17;;;;;;;3.47;1.42;;;;;;;26.58;41.58;99547.56;5092573;28;20032;-72
2023/08/09 11:06:45;;;;;;;2.60;1.40;;;;;;;26.59;41.65;99543.91;5090666;28;20028;-73
2023/08/09 11:09:15;;;;;;;2.95;1.40;;;;;;;26.59;41.88;99535.88;5092520;28;20054;-72
2023/08/09 11:11:43;;;;;;;3.05;1.40;;;;;;;26.61;42.01;99536.59;5091211;28;20031;-69
2023/08/09 11:14:11;;;;;;;2.85;1.40;;;;;;;26.62;41.48;99543.63;5090788;28;20024;-70
2023/08/09 11:16:37;;;;;;;2.72;1.38;;;;;;;26.61;41.82;99534.78;5091128;28;20048;-71
2023/08/09 11:19:05;;;;;;;3.13;1.55;;;;;;;26.63;41.76;99532.81;5092203;28;20024;-72
2023/08/09 11:21:44;;;;;;;1.95;1.35;;;;;;;26.65;41.52;99527.31;5092149;28;20024;-72
2023/08/09 11:24:10;;;;;;;2.35;1.30;;;;;;;26.66;41.58;99523.66;5091023;28;20097;-72
2023/08/09 11:26:38;;;;;;;2.55;1.55;;;;;;;26.67;41.63;99522.69;5092328;28;20561;-72
2023/08/09 11:29:05;;;;;;;3.42;1.50;;;;;;;26.70;41.40;99517.09;5092306;28;20024;-72
2023/08/09 11:31:48;;;;;;;2.50;1.55;;;;;;;26.69;41.59;99526.09;5091964;28;20032;-72